createdAt,value
2022-12-24T00:01:12.351Z,10.03
2022-12-24T00:03:45.718Z,10.03
2022-12-24T00:06:23.369Z,10.04
2022-12-24T00:09:00.277Z,10.01
2022-12-24T00:11:44.030Z,9.98
2022-12-24T00:14:17.365Z,9.93
2022-12-24T00:16:50.813Z,9.88
2022-12-24T00:19:25.884Z,9.80
2022-12-24T00:21:59.832Z,9.73
2022-12-24T00:24:32.163Z,9.71
2022-12-24T00:27:06.603Z,9.65
2022-12-24T00:29:39.043Z,9.62
2022-12-24T00:32:13.894Z,9.64
2022-12-24T00:34:48.495Z,9.61
2022-12-24T00:37:20.518Z,9.58
2022-12-24T00:39:52.963Z,9.54
2022-12-24T00:42:26.134Z,9.52
2022-12-24T00:44:58.943Z,9.57
2022-12-24T00:47:35.562Z,9.57
2022-12-24T00:50:11.136Z,9.58
2022-12-24T00:52:43.024Z,9.55
2022-12-24T00:55:17.990Z,9.55
2022-12-24T00:57:51.024Z,9.59
2022-12-24T01:00:25.726Z,9.63
2022-12-24T01:02:58.035Z,9.67
2022-12-24T01:05:31.269Z,9.70
2022-12-24T01:08:04.660Z,9.73
2022-12-24T01:10:37.315Z,9.74
2022-12-24T01:13:11.691Z,9.72
2022-12-24T01:15:44.201Z,9.74
2022-12-24T01:18:19.656Z,9.74
2022-12-24T01:21:00.761Z,9.72
2022-12-24T01:23:34.768Z,9.72
2022-12-24T01:26:08.592Z,9.78
2022-12-24T01:28:42.370Z,9.81
2022-12-24T01:31:17.889Z,9.79
2022-12-24T01:33:53.182Z,9.79
2022-12-24T01:36:25.507Z,9.76
2022-12-24T01:38:58.699Z,9.72
2022-12-24T01:41:52.003Z,9.71
2022-12-24T01:44:35.152Z,9.71
2022-12-24T01:47:12.724Z,9.64
2022-12-24T01:49:46.511Z,9.58
2022-12-24T01:52:20.777Z,9.54
2022-12-24T01:54:56.068Z,9.51
2022-12-24T01:57:31.565Z,9.51
2022-12-24T02:00:09.573Z,9.49
2022-12-24T02:02:44.926Z,9.51
2022-12-24T02:05:19.947Z,9.56
2022-12-24T02:07:53.232Z,9.58
2022-12-24T02:10:27.523Z,9.58
2022-12-24T02:13:00.880Z,9.58
2022-12-24T02:15:39.961Z,9.55
2022-12-24T02:18:19.441Z,9.55
2022-12-24T02:21:10.740Z,9.57
2022-12-24T02:23:55.979Z,9.57
2022-12-24T02:26:41.252Z,9.59
2022-12-24T02:29:32.372Z,9.58
2022-12-24T02:32:07.706Z,9.58
2022-12-24T02:34:42.082Z,9.59
2022-12-24T02:37:17.823Z,9.58
2022-12-24T02:39:53.962Z,9.59
2022-12-24T02:42:30.409Z,9.59
2022-12-24T02:45:06.197Z,9.60
2022-12-24T02:47:39.720Z,9.58
2022-12-24T02:50:16.611Z,9.56
2022-12-24T02:52:51.008Z,9.62
2022-12-24T02:55:26.978Z,9.62
2022-12-24T02:58:12.902Z,9.64
2022-12-24T03:00:55.405Z,9.68
2022-12-24T03:03:38.227Z,9.72
2022-12-24T03:06:23.110Z,9.73
2022-12-24T03:09:01.082Z,9.74
2022-12-24T03:11:37.283Z,9.75
2022-12-24T03:14:09.978Z,9.79
2022-12-24T03:16:45.856Z,9.86
2022-12-24T03:19:19.239Z,9.86
2022-12-24T03:21:52.214Z,9.88
2022-12-24T03:24:24.972Z,9.90
2022-12-24T03:26:59.817Z,9.94
2022-12-24T03:29:32.228Z,9.97
2022-12-24T03:32:06.253Z,9.99
2022-12-24T03:34:40.203Z,10.01
2022-12-24T03:37:12.403Z,10.02
2022-12-24T03:39:45.397Z,10.03
2022-12-24T03:42:17.309Z,10.05
2022-12-24T03:44:50.275Z,10.09
2022-12-24T03:47:23.076Z,10.12
2022-12-24T03:49:57.036Z,10.16
2022-12-24T03:52:29.659Z,10.19
2022-12-24T03:55:05.569Z,10.23
2022-12-24T03:57:39.846Z,10.29
2022-12-24T04:00:16.333Z,10.33
2022-12-24T04:02:48.729Z,10.36
2022-12-24T04:05:28.700Z,10.37
2022-12-24T04:08:01.071Z,10.39
2022-12-24T04:10:36.580Z,10.43
2022-12-24T04:13:14.981Z,10.46
2022-12-24T04:15:47.797Z,10.48
2022-12-24T04:18:21.225Z,10.52
2022-12-24T04:20:55.780Z,10.54
2022-12-24T04:23:29.334Z,10.55
2022-12-24T04:26:05.598Z,10.55
2022-12-24T04:28:38.746Z,10.54
2022-12-24T04:31:13.634Z,10.50
2022-12-24T04:33:46.746Z,10.47
2022-12-24T04:36:20.994Z,10.44
2022-12-24T04:38:53.838Z,10.43
2022-12-24T04:41:28.282Z,10.44
2022-12-24T04:44:02.685Z,10.40
2022-12-24T04:46:35.629Z,10.38
2022-12-24T04:49:11.816Z,10.37
2022-12-24T04:51:46.769Z,10.37
2022-12-24T04:54:20.049Z,10.37
2022-12-24T04:56:53.451Z,10.36
2022-12-24T04:59:29.640Z,10.39
2022-12-24T05:02:04.680Z,10.38
2022-12-24T05:04:37.096Z,10.40
2022-12-24T05:07:09.035Z,10.39
2022-12-24T05:09:42.930Z,10.36
2022-12-24T05:12:17.730Z,10.33
2022-12-24T05:14:52.501Z,10.28
2022-12-24T05:17:27.475Z,10.27
2022-12-24T05:20:00.030Z,10.26
2022-12-24T05:22:53.539Z,10.25
2022-12-24T05:25:43.372Z,10.23
2022-12-24T05:28:16.856Z,10.22
2022-12-24T05:30:49.828Z,10.25
2022-12-24T05:33:23.100Z,10.25
2022-12-24T05:35:56.767Z,10.27
2022-12-24T05:38:28.896Z,10.29
2022-12-24T05:41:06.094Z,10.28
2022-12-24T05:43:40.594Z,10.32
2022-12-24T05:46:16.781Z,10.35
2022-12-24T05:48:51.796Z,10.39
2022-12-24T05:51:26.785Z,10.39
2022-12-24T05:54:02.475Z,10.37
2022-12-24T05:56:35.812Z,10.35
2022-12-24T05:59:10.812Z,10.37
2022-12-24T06:01:46.465Z,10.40
2022-12-24T06:04:26.533Z,10.45
2022-12-24T06:07:01.848Z,10.45
2022-12-24T06:09:35.352Z,10.49
2022-12-24T06:12:08.653Z,10.53
2022-12-24T06:14:43.552Z,10.57
2022-12-24T06:17:17.968Z,10.61
2022-12-24T06:19:52.146Z,10.63
2022-12-24T06:22:26.662Z,10.65
2022-12-24T06:25:01.737Z,10.69
2022-12-24T06:27:36.263Z,10.69
2022-12-24T06:30:12.495Z,10.66
2022-12-24T06:32:49.582Z,10.64
2022-12-24T06:35:24.556Z,10.63
2022-12-24T06:37:58.060Z,10.62
2022-12-24T06:40:31.849Z,10.60
2022-12-24T06:43:05.437Z,10.62
2022-12-24T06:45:40.513Z,10.62
2022-12-24T06:48:14.714Z,10.65
2022-12-24T06:50:48.975Z,10.67
2022-12-24T06:53:27.122Z,10.70
2022-12-24T06:56:05.940Z,10.75
2022-12-24T06:58:41.955Z,10.75
2022-12-24T07:01:18.170Z,10.81
2022-12-24T07:03:53.041Z,10.81
2022-12-24T07:06:29.458Z,10.76
2022-12-24T07:09:04.276Z,10.75
2022-12-24T07:11:39.495Z,10.79
2022-12-24T07:14:13.588Z,10.82
2022-12-24T07:16:47.589Z,10.83
2022-12-24T07:19:21.764Z,10.90
2022-12-24T07:21:54.035Z,10.96
2022-12-24T07:24:27.839Z,10.98
2022-12-24T07:27:01.421Z,11.03
2022-12-24T07:29:35.739Z,11.05
2022-12-24T07:32:13.097Z,11.09
2022-12-24T07:34:47.828Z,11.13
2022-12-24T07:37:21.224Z,11.19
2022-12-24T07:39:54.007Z,11.21
2022-12-24T07:42:30.865Z,11.28
2022-12-24T07:45:06.227Z,11.35
2022-12-24T07:47:40.459Z,11.43
2022-12-24T07:50:14.451Z,11.51
2022-12-24T07:52:50.614Z,11.52
2022-12-24T07:55:23.475Z,11.55
2022-12-24T07:57:56.416Z,11.56
2022-12-24T08:00:30.370Z,11.59
2022-12-24T08:03:06.014Z,11.65
2022-12-24T08:05:40.016Z,11.72
2022-12-24T08:08:13.059Z,11.77
2022-12-24T08:10:48.194Z,11.81
2022-12-24T08:13:22.817Z,11.86
2022-12-24T08:15:55.054Z,11.90
2022-12-24T08:18:28.497Z,11.94
2022-12-24T08:21:01.262Z,12.00
2022-12-24T08:23:33.310Z,12.05
2022-12-24T08:26:07.547Z,12.12
2022-12-24T08:28:40.332Z,12.14
2022-12-24T08:31:16.062Z,12.13
2022-12-24T08:33:49.411Z,12.09
2022-12-24T08:36:21.704Z,12.11
2022-12-24T08:38:53.954Z,12.13
2022-12-24T08:41:27.077Z,12.15
2022-12-24T08:43:59.131Z,12.19
2022-12-24T08:46:33.228Z,12.22
2022-12-24T08:49:06.104Z,12.25
2022-12-24T08:51:42.759Z,12.30
2022-12-24T08:54:19.305Z,12.32
2022-12-24T08:56:51.834Z,12.39
2022-12-24T08:59:25.485Z,12.45
2022-12-24T09:01:57.752Z,12.48
2022-12-24T09:04:30.252Z,12.49
2022-12-24T09:07:05.145Z,12.53
2022-12-24T09:09:38.491Z,12.56
2022-12-24T09:12:13.620Z,12.58
2022-12-24T09:14:46.365Z,12.56
2022-12-24T09:17:20.171Z,12.59
2022-12-24T09:19:53.432Z,12.65
2022-12-24T09:22:26.670Z,12.69
2022-12-24T09:24:58.766Z,12.72
2022-12-24T09:27:32.825Z,12.80
2022-12-24T09:30:07.196Z,12.85
2022-12-24T09:32:39.237Z,12.90
2022-12-24T09:35:12.689Z,12.96
2022-12-24T09:37:45.236Z,13.04
2022-12-24T09:40:28.159Z,13.11
2022-12-24T09:43:01.801Z,13.16
2022-12-24T09:45:40.799Z,13.19
2022-12-24T09:48:16.719Z,13.28
2022-12-24T09:50:53.264Z,13.35
2022-12-24T09:53:29.317Z,13.39
2022-12-24T09:56:05.974Z,13.41
2022-12-24T09:58:41.411Z,13.39
2022-12-24T10:01:17.353Z,13.38
2022-12-24T10:03:53.352Z,13.36
2022-12-24T10:06:29.775Z,13.35
2022-12-24T10:09:07.063Z,13.36
2022-12-24T10:11:51.003Z,13.37
2022-12-24T10:14:36.216Z,13.39
2022-12-24T10:17:29.872Z,13.34
2022-12-24T10:20:24.136Z,13.33
2022-12-24T10:23:08.879Z,13.37
2022-12-24T10:25:47.771Z,13.44
2022-12-24T10:28:24.383Z,13.51
2022-12-24T10:31:01.553Z,13.55
2022-12-24T10:33:39.942Z,13.61
2022-12-24T10:36:14.492Z,13.59
2022-12-24T10:38:48.537Z,13.53
2022-12-24T10:41:23.318Z,13.48
2022-12-24T10:43:57.541Z,13.42
2022-12-24T10:46:36.479Z,13.39
2022-12-24T10:49:12.645Z,13.35
2022-12-24T10:51:52.390Z,13.25
2022-12-24T10:54:28.316Z,13.09
2022-12-24T10:57:02.668Z,12.98
2022-12-24T10:59:45.948Z,12.90
2022-12-24T11:02:32.568Z,12.86
2022-12-24T11:05:08.801Z,12.82
2022-12-24T11:07:44.938Z,12.80
2022-12-24T11:10:26.486Z,12.78
2022-12-24T11:13:35.157Z,12.79
2022-12-24T11:16:01.758Z,12.75
2022-12-24T11:18:35.564Z,12.73
2022-12-24T11:21:09.343Z,12.72
2022-12-24T11:23:43.754Z,12.73
2022-12-24T11:26:26.810Z,12.76
2022-12-24T11:29:15.969Z,12.75
2022-12-24T11:31:52.691Z,12.74
2022-12-24T11:34:31.617Z,12.69
2022-12-24T11:37:17.071Z,12.67
2022-12-24T11:39:53.581Z,12.66
2022-12-24T11:42:34.557Z,12.62
2022-12-24T11:45:23.568Z,12.56
2022-12-24T11:48:00.548Z,12.44
2022-12-24T11:50:35.938Z,12.37
2022-12-24T11:53:16.691Z,12.34
2022-12-24T11:55:52.212Z,12.35
2022-12-24T11:58:35.875Z,12.35
2022-12-24T12:01:16.652Z,12.35
2022-12-24T12:03:54.983Z,12.35
2022-12-24T12:06:34.077Z,12.35
2022-12-24T12:09:09.794Z,12.37
2022-12-24T12:11:45.885Z,12.37
2022-12-24T12:14:24.103Z,12.40
2022-12-24T12:17:05.380Z,12.42
2022-12-24T12:19:44.981Z,12.43
2022-12-24T12:22:25.876Z,12.44
2022-12-24T12:25:00.194Z,12.44
2022-12-24T12:27:37.247Z,12.44
2022-12-24T12:30:19.403Z,12.44
2022-12-24T12:32:58.132Z,12.44
2022-12-24T12:35:37.121Z,12.45
2022-12-24T12:38:16.726Z,12.46
2022-12-24T12:41:28.076Z,12.46
2022-12-24T12:44:20.064Z,12.43
2022-12-24T12:47:04.068Z,12.38
2022-12-24T12:49:45.257Z,12.39
2022-12-24T12:52:24.331Z,12.35
2022-12-24T12:55:06.645Z,12.35
2022-12-24T12:57:40.089Z,12.34
2022-12-24T13:00:22.845Z,12.31
2022-12-24T13:03:18.767Z,12.27
2022-12-24T13:06:29.484Z,12.26
2022-12-24T13:09:27.000Z,12.21
2022-12-24T13:12:14.596Z,12.18
2022-12-24T13:15:03.082Z,12.16
2022-12-24T13:17:51.949Z,12.13
2022-12-24T13:20:29.762Z,12.15
2022-12-24T13:23:16.636Z,12.14
2022-12-24T13:25:56.554Z,12.10
2022-12-24T13:28:38.803Z,12.06
2022-12-24T13:31:32.230Z,12.06
2022-12-24T13:34:07.917Z,11.96
2022-12-24T13:37:05.704Z,11.91
2022-12-24T13:40:15.683Z,11.91
2022-12-24T13:43:09.395Z,11.91
2022-12-24T13:45:48.747Z,11.92
2022-12-24T13:48:33.296Z,11.91
2022-12-24T13:54:06.418Z,11.92
2022-12-24T13:56:41.114Z,11.86
2022-12-24T13:59:36.139Z,11.84
2022-12-24T14:02:22.644Z,11.78
2022-12-24T14:05:05.136Z,11.81
2022-12-24T14:07:38.951Z,11.82
2022-12-24T14:10:25.901Z,11.80
2022-12-24T14:12:57.856Z,11.83
2022-12-24T14:15:58.825Z,11.87
2022-12-24T14:18:34.602Z,11.86
2022-12-24T14:21:08.915Z,11.86
2022-12-24T14:23:46.861Z,11.86
2022-12-24T14:26:21.393Z,11.87
2022-12-24T14:28:57.661Z,11.86
2022-12-24T14:31:31.751Z,11.84
2022-12-24T14:34:13.998Z,11.79
2022-12-24T14:36:48.030Z,11.77
2022-12-24T14:39:26.626Z,11.75
2022-12-24T14:42:06.508Z,11.73
2022-12-24T14:44:45.367Z,11.74
2022-12-24T14:47:27.054Z,11.73
2022-12-24T14:50:12.277Z,11.73
2022-12-24T14:53:10.509Z,11.72
2022-12-24T14:55:47.246Z,11.72
2022-12-24T14:58:26.725Z,11.70
2022-12-24T15:01:02.744Z,11.70
2022-12-24T15:03:36.067Z,11.72
2022-12-24T15:06:10.971Z,11.73
2022-12-24T15:08:45.662Z,11.76
2022-12-24T15:11:23.532Z,11.78
2022-12-24T15:13:57.070Z,11.78
2022-12-24T15:16:32.571Z,11.76
2022-12-24T15:19:09.359Z,11.79
2022-12-24T15:21:48.538Z,11.91
2022-12-24T15:24:32.747Z,11.87
2022-12-24T15:27:19.932Z,11.85
2022-12-24T15:29:58.636Z,11.86
2022-12-24T15:32:31.011Z,11.84
2022-12-24T15:35:04.300Z,11.81
2022-12-24T15:37:40.097Z,11.80
2022-12-24T15:40:26.632Z,11.81
2022-12-24T15:43:01.102Z,11.81
2022-12-24T15:45:35.134Z,11.78
2022-12-24T15:48:12.673Z,11.75
2022-12-24T15:50:48.883Z,11.74
2022-12-24T15:53:25.667Z,11.74
2022-12-24T15:56:11.547Z,11.74
2022-12-24T15:58:47.069Z,11.70
2022-12-24T16:01:31.828Z,11.70
2022-12-24T16:04:17.630Z,11.70
2022-12-24T16:06:58.522Z,11.74
2022-12-24T16:09:46.225Z,11.75
2022-12-24T16:12:26.983Z,11.76
2022-12-24T16:15:01.516Z,11.77
2022-12-24T16:17:37.815Z,11.79
2022-12-24T16:20:21.625Z,11.78
2022-12-24T16:22:54.347Z,11.82
2022-12-24T16:25:29.928Z,11.83
2022-12-24T16:28:06.927Z,11.82
2022-12-24T16:30:45.758Z,11.86
2022-12-24T16:33:20.105Z,11.87
2022-12-24T16:35:52.935Z,11.88
2022-12-24T16:38:47.512Z,11.87
2022-12-24T16:41:24.257Z,11.85
2022-12-24T16:43:57.735Z,11.82
2022-12-24T16:46:31.268Z,11.78
2022-12-24T16:49:07.804Z,11.74
2022-12-24T16:51:46.008Z,11.70
2022-12-24T16:54:19.283Z,11.62
2022-12-24T16:56:51.910Z,11.61
2022-12-24T16:59:27.935Z,11.59
2022-12-24T17:02:05.774Z,11.60
2022-12-24T17:04:41.696Z,11.58
2022-12-24T17:07:15.991Z,11.58
2022-12-24T17:09:49.490Z,11.56
2022-12-24T17:12:23.288Z,11.56
2022-12-24T17:14:56.724Z,11.55
2022-12-24T17:17:31.842Z,11.53
2022-12-24T17:20:05.696Z,11.57
2022-12-24T17:22:39.082Z,11.56
2022-12-24T17:25:15.036Z,11.57
2022-12-24T17:27:47.600Z,11.57
2022-12-24T17:30:21.570Z,11.59
2022-12-24T17:32:53.877Z,11.59
2022-12-24T17:35:27.376Z,11.60
2022-12-24T17:38:00.253Z,11.62
2022-12-24T17:40:35.393Z,11.64
2022-12-24T17:43:11.562Z,11.64
2022-12-24T17:45:45.888Z,11.64
2022-12-24T17:48:19.383Z,11.61
2022-12-24T17:50:51.531Z,11.61
2022-12-24T17:53:27.498Z,11.58
2022-12-24T17:56:00.588Z,11.53
2022-12-24T17:58:35.478Z,11.47
2022-12-24T18:01:10.806Z,11.39
2022-12-24T18:03:46.561Z,11.34
2022-12-24T18:06:19.603Z,11.26
2022-12-24T18:08:55.114Z,11.18
2022-12-24T18:11:32.652Z,11.13
2022-12-24T18:14:08.274Z,11.10
2022-12-24T18:16:42.723Z,11.11
2022-12-24T18:19:19.969Z,11.11
2022-12-24T18:21:54.126Z,11.12
2022-12-24T18:24:29.449Z,11.12
2022-12-24T18:27:06.865Z,11.13
2022-12-24T18:29:42.949Z,11.16
2022-12-24T18:32:18.103Z,11.18
2022-12-24T18:34:58.352Z,11.21
2022-12-24T18:37:30.645Z,11.23
2022-12-24T18:40:07.919Z,11.21
2022-12-24T18:42:46.287Z,11.24
2022-12-24T18:45:18.625Z,11.25
2022-12-24T18:47:52.751Z,11.28
2022-12-24T18:50:26.189Z,11.30
2022-12-24T18:53:00.173Z,11.30
2022-12-24T18:55:38.503Z,11.32
2022-12-24T18:58:11.176Z,11.32
2022-12-24T19:00:44.209Z,11.35
2022-12-24T19:03:17.948Z,11.34
2022-12-24T19:05:51.576Z,11.31
2022-12-24T19:11:19.036Z,11.34
2022-12-24T19:13:53.524Z,11.27
2022-12-24T19:16:31.316Z,11.27
2022-12-24T19:19:07.572Z,11.27
2022-12-24T19:21:42.868Z,11.25
2022-12-24T19:24:17.293Z,11.24
2022-12-24T19:26:53.919Z,11.28
2022-12-24T19:29:26.823Z,11.34
2022-12-24T19:32:03.712Z,11.36
2022-12-24T19:34:38.575Z,11.39
2022-12-24T19:37:12.483Z,11.38
2022-12-24T19:39:47.013Z,11.39
2022-12-24T19:42:19.871Z,11.40
2022-12-24T19:44:54.928Z,11.39
2022-12-24T19:47:28.780Z,11.41
2022-12-24T19:50:06.127Z,11.38
2022-12-24T19:52:41.257Z,11.40
2022-12-24T19:55:15.999Z,11.38
2022-12-24T19:57:50.197Z,11.37
2022-12-24T20:00:24.036Z,11.35
2022-12-24T20:02:57.643Z,11.34
2022-12-24T20:05:33.917Z,11.31
2022-12-24T20:08:08.499Z,11.32
2022-12-24T20:10:44.655Z,11.33
2022-12-24T20:13:20.924Z,11.33
2022-12-24T20:15:55.732Z,11.35
2022-12-24T20:18:32.516Z,11.37
2022-12-24T20:21:13.881Z,11.37
2022-12-24T20:23:56.420Z,11.35
2022-12-24T20:26:33.785Z,11.34
2022-12-24T20:29:12.459Z,11.37
2022-12-24T20:31:54.171Z,11.42
2022-12-24T20:34:31.183Z,11.43
2022-12-24T20:37:04.888Z,11.43
2022-12-24T20:39:38.214Z,11.45
2022-12-24T20:42:11.896Z,11.45
2022-12-24T20:44:46.023Z,11.45
2022-12-24T20:47:20.729Z,11.43
2022-12-24T20:49:53.924Z,11.39
2022-12-24T20:52:28.659Z,11.36
2022-12-24T20:55:01.639Z,11.34
2022-12-24T20:57:36.895Z,11.33
2022-12-24T21:00:12.046Z,11.32
2022-12-24T21:02:46.373Z,11.28
2022-12-24T21:05:20.866Z,11.25
2022-12-24T21:07:56.225Z,11.22
2022-12-24T21:10:34.194Z,11.24
2022-12-24T21:13:08.687Z,11.25
2022-12-24T21:15:43.001Z,11.23
2022-12-24T21:18:17.738Z,11.25
2022-12-24T21:20:54.287Z,11.27
2022-12-24T21:23:31.135Z,11.31
2022-12-24T21:26:04.936Z,11.29
2022-12-24T21:28:39.001Z,11.28
2022-12-24T21:31:16.750Z,11.27
2022-12-24T21:33:51.303Z,11.24
2022-12-24T21:36:25.345Z,11.16
2022-12-24T21:38:58.989Z,11.18
2022-12-24T21:41:32.069Z,11.23
2022-12-24T21:44:06.296Z,11.26
2022-12-24T21:46:40.095Z,11.29
2022-12-24T21:49:31.435Z,11.28
2022-12-24T21:52:05.214Z,11.27
2022-12-24T21:54:39.396Z,11.32
2022-12-24T21:57:31.584Z,11.31
2022-12-24T22:00:20.422Z,11.28
2022-12-24T22:02:55.845Z,11.26
2022-12-24T22:05:30.050Z,11.20
2022-12-24T22:08:25.404Z,11.18
2022-12-24T22:11:27.935Z,11.18
2022-12-24T22:14:00.939Z,11.18
2022-12-24T22:16:36.466Z,11.15
2022-12-24T22:19:11.652Z,11.09
2022-12-24T22:21:49.458Z,11.09
2022-12-24T22:24:22.040Z,11.04
2022-12-24T22:26:55.298Z,11.03
2022-12-24T22:29:29.647Z,11.00
2022-12-24T22:32:02.271Z,10.98
2022-12-24T22:34:38.486Z,10.95
2022-12-24T22:37:13.688Z,10.96
2022-12-24T22:39:48.563Z,10.96
2022-12-24T22:42:21.623Z,10.90
2022-12-24T22:44:57.877Z,10.87
2022-12-24T22:47:32.207Z,10.86
2022-12-24T22:50:07.661Z,10.83
2022-12-24T22:52:44.933Z,10.81
2022-12-24T22:55:19.566Z,10.81
2022-12-24T22:57:53.387Z,10.82
2022-12-24T23:03:25.587Z,10.81
2022-12-24T23:06:03.098Z,10.75
2022-12-24T23:08:37.216Z,10.71
2022-12-24T23:11:15.877Z,10.70
2022-12-24T23:14:07.180Z,10.69
2022-12-24T23:16:42.594Z,10.67
2022-12-24T23:19:16.306Z,10.68
2022-12-24T23:21:51.545Z,10.71
2022-12-24T23:24:24.511Z,10.73
2022-12-24T23:27:02.293Z,10.74
2022-12-24T23:29:36.359Z,10.72
2022-12-24T23:32:12.776Z,10.70
2022-12-24T23:34:46.934Z,10.69
2022-12-24T23:37:19.272Z,10.68
2022-12-24T23:39:53.769Z,10.71
2022-12-24T23:42:26.853Z,10.70
2022-12-24T23:45:01.618Z,10.68
2022-12-24T23:47:33.904Z,10.64
2022-12-24T23:50:10.126Z,10.65
2022-12-24T23:52:42.996Z,10.64
2022-12-24T23:55:15.853Z,10.61
2022-12-24T23:57:50.551Z,10.57
